Alma Center, Wisconsin
Current Conditions -  °F | °C
As of 4:15 PM on Friday 24 Oct 2014 (Local Time) from KBCK Reporting Station
Overcast Overcast  
Wind Chill: 62°   Ceiling: 2900
Heat Index: 62°   Visibility: 10mi
Dew Point: 51°   Wind: 0mph
Humidity: 66%   Direction: NA
Pressure: 29.86"   Gusts: NA
Location:  44.44°N, 90.91°W
Report Text: KBCK 242115Z AUTO 00000KT 10SM OVC029 17/11 A2986 RMK AO2 T01680105
Loading
Personal Weather Stations






























Interactive Weather Map New forecast layout! Learn more

10-Day Weather Forecast

Advertisements
Track Severe Weather on mobile